createdAt,value
2022-09-12T00:01:36.399Z,94459.38
2022-09-12T00:04:03.238Z,94459.38
2022-09-12T00:06:33.096Z,94459.38
2022-09-12T00:09:03.074Z,94457.81
2022-09-12T00:11:30.291Z,94449.97
2022-09-12T00:14:01.816Z,94454.25
2022-09-12T00:16:29.877Z,94458.38
2022-09-12T00:18:56.613Z,94444.81
2022-09-12T00:21:24.711Z,94451.88
2022-09-12T00:23:52.082Z,94448.88
2022-09-12T00:26:20.632Z,94444.28
2022-09-12T00:28:48.299Z,94444.28
2022-09-12T00:31:17.977Z,94436.75
2022-09-12T00:33:44.999Z,94435.50
2022-09-12T00:36:15.318Z,94433.63
2022-09-12T00:38:43.127Z,94433.03
2022-09-12T00:41:34.264Z,94430.78
2022-09-12T00:44:22.856Z,94424.97
2022-09-12T00:46:52.537Z,94424.06
2022-09-12T00:49:30.419Z,94419.56
2022-09-12T00:52:09.889Z,94419.88
2022-09-12T00:54:45.291Z,94431.28
2022-09-12T00:57:14.742Z,94425.97
2022-09-12T00:59:52.241Z,94431.56
2022-09-12T01:02:18.924Z,94431.44
2022-09-12T01:04:47.901Z,94430.97
2022-09-12T01:07:15.465Z,94424.50
2022-09-12T01:09:44.634Z,94419.59
2022-09-12T01:12:12.801Z,94428.09
2022-09-12T01:14:39.828Z,94418.81
2022-09-12T01:17:06.609Z,94414.88
2022-09-12T01:20:15.638Z,94414.41
2022-09-12T01:22:51.452Z,94402.91
2022-09-12T01:25:31.644Z,94401.19
2022-09-12T01:28:30.651Z,94398.50
2022-09-12T01:31:00.940Z,94398.63
2022-09-12T01:33:50.839Z,94396.41
2022-09-12T01:36:36.185Z,94393.88
2022-09-12T01:39:04.888Z,94384.56
2022-09-12T01:41:50.369Z,94392.94
2022-09-12T01:44:20.087Z,94392.03
2022-09-12T01:47:10.238Z,94391.75
2022-09-12T01:50:15.684Z,94386.63
2022-09-12T01:52:51.170Z,94384.91
2022-09-12T01:55:29.899Z,94379.53
2022-09-12T01:58:12.563Z,94378.75
2022-09-12T02:00:48.177Z,94377.06
2022-09-12T02:03:20.717Z,94381.16
2022-09-12T02:05:55.021Z,94367.88
2022-09-12T02:08:48.566Z,94368.22
2022-09-12T02:11:15.281Z,94369.66
2022-09-12T02:13:55.243Z,94379.13
2022-09-12T02:16:36.691Z,94373.22
2022-09-12T02:19:09.664Z,94373.84
2022-09-12T02:21:41.782Z,94374.66
2022-09-12T02:24:09.947Z,94375.09
2022-09-12T02:26:44.323Z,94373.06
2022-09-12T02:29:11.088Z,94373.41
2022-09-12T02:31:46.611Z,94370.84
2022-09-12T02:34:28.939Z,94368.63
2022-09-12T02:37:17.801Z,94374.31
2022-09-12T02:39:45.486Z,94371.38
2022-09-12T02:42:13.463Z,94366.97
2022-09-12T02:44:41.028Z,94361.47
2022-09-12T02:47:26.778Z,94353.72
2022-09-12T02:49:54.260Z,94353.94
2022-09-12T02:52:21.502Z,94363.41
2022-09-12T02:54:49.178Z,94355.03
2022-09-12T02:57:22.380Z,94352.69
2022-09-12T02:59:52.667Z,94353.47
2022-09-12T03:02:48.677Z,94354.25
2022-09-12T03:05:31.889Z,94345.28
2022-09-12T03:08:17.293Z,94350.19
2022-09-12T03:11:05.481Z,94347.84
2022-09-12T03:13:58.175Z,94344.69
2022-09-12T03:16:58.405Z,94338.09
2022-09-12T03:19:27.898Z,94344.88
2022-09-12T03:22:11.623Z,94344.44
2022-09-12T03:24:48.577Z,94347.44
2022-09-12T03:27:19.043Z,94343.53
2022-09-12T03:29:48.196Z,94347.94
2022-09-12T03:32:15.468Z,94344.66
2022-09-12T03:34:42.097Z,94344.28
2022-09-12T03:37:08.776Z,94344.59
2022-09-12T03:39:35.513Z,94345.25
2022-09-12T03:42:02.185Z,94345.56
2022-09-12T03:44:29.142Z,94341.78
2022-09-12T03:46:55.844Z,94347.13
2022-09-12T03:49:22.610Z,94338.31
2022-09-12T03:51:49.347Z,94345.56
2022-09-12T03:54:16.168Z,94339.91
2022-09-12T03:56:42.797Z,94346.19
2022-09-12T03:59:09.435Z,94332.63
2022-09-12T04:01:36.129Z,94335.91
2022-09-12T04:04:02.945Z,94340.66
2022-09-12T04:06:29.835Z,94339.28
2022-09-12T04:08:56.522Z,94337.09
2022-09-12T04:11:23.639Z,94345.00
2022-09-12T04:13:50.328Z,94342.66
2022-09-12T04:16:18.073Z,94345.97
2022-09-12T04:18:45.905Z,94340.94
2022-09-12T04:21:18.904Z,94341.88
2022-09-12T04:23:45.834Z,94347.41
2022-09-12T04:26:13.917Z,94343.00
2022-09-12T04:28:41.801Z,94339.22
2022-09-12T04:31:15.683Z,94347.72
2022-09-12T04:33:42.363Z,94341.72
2022-09-12T04:36:12.177Z,94338.44
2022-09-12T04:38:39.052Z,94338.44
2022-09-12T04:41:16.933Z,94339.84
2022-09-12T04:43:46.578Z,94338.13
2022-09-12T04:46:15.490Z,94335.81
2022-09-12T04:48:43.333Z,94335.00
2022-09-12T04:51:12.258Z,94339.59
2022-09-12T04:53:39.138Z,94339.13
2022-09-12T04:56:08.151Z,94340.38
2022-09-12T04:58:35.808Z,94336.25
2022-09-12T05:01:11.766Z,94343.16
2022-09-12T05:03:39.615Z,94334.22
2022-09-12T05:06:08.418Z,94337.03
2022-09-12T05:08:35.567Z,94336.38
2022-09-12T05:11:05.105Z,94336.53
2022-09-12T05:13:32.987Z,94336.69
2022-09-12T05:16:01.567Z,94332.91
2022-09-12T05:18:29.140Z,94335.88
2022-09-12T05:20:55.741Z,94339.91
2022-09-12T05:23:22.575Z,94337.38
2022-09-12T05:25:53.303Z,94340.66
2022-09-12T05:28:21.123Z,94350.28
2022-09-12T05:30:48.533Z,94336.88
2022-09-12T05:33:15.509Z,94339.38
2022-09-12T05:35:42.100Z,94342.00
2022-09-12T05:38:08.737Z,94348.03
2022-09-12T05:40:35.772Z,94346.81
2022-09-12T05:43:02.414Z,94355.53
2022-09-12T05:45:29.985Z,94350.34
2022-09-12T05:47:56.717Z,94352.56
2022-09-12T05:50:23.362Z,94353.59
2022-09-12T05:52:50.593Z,94358.66
2022-09-12T05:55:17.368Z,94361.63
2022-09-12T05:57:46.102Z,94356.19
2022-09-12T06:00:14.955Z,94369.78
2022-09-12T06:02:42.204Z,94360.13
2022-09-12T06:05:09.178Z,94370.13
2022-09-12T06:07:36.175Z,94362.53
2022-09-12T06:10:05.354Z,94364.63
2022-09-12T06:12:32.134Z,94361.34
2022-09-12T06:14:58.734Z,94361.97
2022-09-12T06:17:25.363Z,94365.06
2022-09-12T06:19:52.054Z,94366.81
2022-09-12T06:22:19.257Z,94361.13
2022-09-12T06:24:45.934Z,94355.66
2022-09-12T06:27:12.581Z,94357.41
2022-09-12T06:29:39.239Z,94349.75
2022-09-12T06:32:07.031Z,94363.06
2022-09-12T06:34:33.872Z,94354.69
2022-09-12T06:37:00.528Z,94352.09
2022-09-12T06:39:27.269Z,94354.06
2022-09-12T06:41:54.338Z,94355.66
2022-09-12T06:44:32.947Z,94357.13
2022-09-12T06:46:59.633Z,94350.16
2022-09-12T06:49:26.451Z,94350.19
2022-09-12T06:51:53.086Z,94361.88
2022-09-12T06:54:20.159Z,94363.53
2022-09-12T06:56:46.859Z,94367.13
2022-09-12T06:59:13.556Z,94357.09
2022-09-12T07:01:41.874Z,94361.00
2022-09-12T07:04:08.814Z,94352.41
2022-09-12T07:06:40.700Z,94366.63
2022-09-12T07:09:10.542Z,94358.13
2022-09-12T07:11:38.467Z,94360.38
2022-09-12T07:14:06.839Z,94356.22
2022-09-12T07:16:35.961Z,94357.50
2022-09-12T07:19:04.181Z,94361.47
2022-09-12T07:21:30.945Z,94353.16
2022-09-12T07:23:58.467Z,94350.84
2022-09-12T07:26:28.126Z,94360.06
2022-09-12T07:29:07.930Z,94362.06
2022-09-12T07:31:39.748Z,94356.19
2022-09-12T07:34:06.864Z,94364.31
2022-09-12T07:36:34.480Z,94366.75
2022-09-12T07:39:01.722Z,94361.31
2022-09-12T07:41:30.701Z,94372.31
2022-09-12T07:43:59.061Z,94369.41
2022-09-12T07:46:27.819Z,94367.19
2022-09-12T07:48:56.501Z,94361.13
2022-09-12T07:51:24.418Z,94361.59
2022-09-12T07:53:51.858Z,94362.41
2022-09-12T07:56:19.957Z,94363.66
2022-09-12T07:58:47.121Z,94365.44
2022-09-12T08:01:23.157Z,94364.59
2022-09-12T08:03:54.307Z,94365.63
2022-09-12T08:06:25.212Z,94377.72
2022-09-12T08:08:54.185Z,94379.66
2022-09-12T08:11:23.170Z,94374.47
2022-09-12T08:13:55.424Z,94374.66
2022-09-12T08:16:24.574Z,94383.28
2022-09-12T08:18:51.437Z,94374.84
2022-09-12T08:21:23.221Z,94379.78
2022-09-12T08:24:01.777Z,94381.28
2022-09-12T08:26:28.936Z,94381.66
2022-09-12T08:28:55.610Z,94376.50
2022-09-12T08:31:24.326Z,94375.00
2022-09-12T08:33:51.175Z,94386.00
2022-09-12T08:36:21.232Z,94393.09
2022-09-12T08:38:50.249Z,94388.50
2022-09-12T08:41:55.996Z,94394.69
2022-09-12T08:44:28.664Z,94386.28
2022-09-12T08:47:26.884Z,94391.06
2022-09-12T08:50:08.938Z,94387.47
2022-09-12T08:52:41.560Z,94379.78
2022-09-12T08:55:25.734Z,94384.50
2022-09-12T08:57:52.779Z,94381.84
2022-09-12T09:00:21.461Z,94381.56
2022-09-12T09:02:54.366Z,94388.16
2022-09-12T09:05:30.047Z,94384.59
2022-09-12T09:08:05.745Z,94375.38
2022-09-12T09:10:35.296Z,94372.31
2022-09-12T09:13:51.976Z,94371.94
2022-09-12T09:16:32.233Z,94373.91
2022-09-12T09:19:04.457Z,94373.88
2022-09-12T09:21:54.567Z,94374.81
2022-09-12T09:24:33.901Z,94366.94
2022-09-12T09:27:39.227Z,94372.06
2022-09-12T09:30:14.328Z,94367.78
2022-09-12T09:32:42.846Z,94374.44
2022-09-12T09:35:39.210Z,94367.09
2022-09-12T09:38:22.366Z,94367.09
2022-09-12T09:41:09.191Z,94360.88
2022-09-12T09:43:38.012Z,94368.66
2022-09-12T09:46:05.401Z,94357.75
2022-09-12T09:48:35.932Z,94371.78
2022-09-12T09:51:07.169Z,94364.00
2022-09-12T09:53:58.317Z,94366.31
2022-09-12T09:56:36.905Z,94369.84
2022-09-12T09:59:15.541Z,94366.31
2022-09-12T10:02:03.938Z,94369.44
2022-09-12T10:04:41.432Z,94368.28
2022-09-12T10:07:19.936Z,94377.22
2022-09-12T10:10:07.057Z,94374.91
2022-09-12T10:12:33.709Z,94366.34
2022-09-12T10:15:02.311Z,94372.53
2022-09-12T10:17:34.633Z,94372.91
2022-09-12T10:20:20.448Z,94360.50
2022-09-12T10:22:49.337Z,94362.44
2022-09-12T10:25:18.652Z,94364.38
2022-09-12T10:27:53.771Z,94360.88
2022-09-12T10:30:24.775Z,94361.66
2022-09-12T10:32:54.197Z,94361.25
2022-09-12T10:35:42.547Z,94361.25
2022-09-12T10:38:24.962Z,94355.00
2022-09-12T10:41:01.484Z,94353.38
2022-09-12T10:43:39.227Z,94363.34
2022-09-12T10:46:15.685Z,94365.75
2022-09-12T10:48:44.533Z,94362.38
2022-09-12T10:51:28.967Z,94361.94
2022-09-12T10:54:01.062Z,94366.84
2022-09-12T10:56:33.672Z,94363.66
2022-09-12T10:59:16.772Z,94365.31
2022-09-12T11:01:49.575Z,94365.44
2022-09-12T11:04:45.816Z,94371.63
2022-09-12T11:07:27.465Z,94375.13
2022-09-12T11:10:03.079Z,94358.81
2022-09-12T11:12:51.220Z,94365.44
2022-09-12T11:15:27.008Z,94357.91
2022-09-12T11:18:14.853Z,94354.16
2022-09-12T11:21:02.009Z,94349.47
2022-09-12T11:24:07.183Z,94354.16
2022-09-12T11:26:52.052Z,94340.31
2022-09-12T11:29:45.709Z,94350.47
2022-09-12T11:32:27.577Z,94341.44
2022-09-12T11:34:58.248Z,94348.16
2022-09-12T11:37:55.852Z,94344.84
2022-09-12T11:40:22.975Z,94336.13
2022-09-12T11:42:54.656Z,94330.44
2022-09-12T11:45:29.324Z,94342.13
2022-09-12T11:48:04.187Z,94331.44
2022-09-12T11:50:32.354Z,94332.16
2022-09-12T11:53:12.532Z,94331.22
2022-09-12T11:55:49.374Z,94328.63
2022-09-12T11:58:20.178Z,94327.53
2022-09-12T12:01:03.308Z,94321.94
2022-09-12T12:03:40.334Z,94320.28
2022-09-12T12:06:31.927Z,94321.19
2022-09-12T12:08:59.087Z,94311.28
2022-09-12T12:11:31.020Z,94309.25
2022-09-12T12:14:06.145Z,94307.59
2022-09-12T12:16:37.213Z,94308.53
2022-09-12T12:19:31.281Z,94310.28
2022-09-12T12:22:09.080Z,94301.94
2022-09-12T12:24:55.795Z,94299.47
2022-09-12T12:27:55.273Z,94291.94
2022-09-12T12:30:31.147Z,94286.63
2022-09-12T12:33:16.011Z,94280.94
2022-09-12T12:35:47.933Z,94283.38
2022-09-12T12:38:29.798Z,94271.97
2022-09-12T12:41:15.211Z,94276.81
2022-09-12T12:43:41.971Z,94273.84
2022-09-12T12:46:14.373Z,94273.47
2022-09-12T12:48:55.611Z,94262.06
2022-09-12T12:51:49.393Z,94265.47
2022-09-12T12:54:51.081Z,94263.88
2022-09-12T12:57:19.881Z,94261.28
2022-09-12T12:59:58.235Z,94256.50
2022-09-12T13:02:41.358Z,94265.50
2022-09-12T13:05:21.139Z,94263.19
2022-09-12T13:07:55.715Z,94259.25
2022-09-12T13:10:25.307Z,94264.78
2022-09-12T13:12:53.177Z,94259.09
2022-09-12T13:15:38.042Z,94261.31
2022-09-12T13:18:27.908Z,94262.41
2022-09-12T13:20:54.475Z,94262.69
2022-09-12T13:23:26.628Z,94257.78
2022-09-12T13:26:01.916Z,94255.16
2022-09-12T13:28:30.159Z,94255.41
2022-09-12T13:31:25.805Z,94257.06
2022-09-12T13:33:59.985Z,94247.44
2022-09-12T13:36:30.139Z,94241.47
2022-09-12T13:39:15.505Z,94247.25
2022-09-12T13:42:03.273Z,94250.78
2022-09-12T13:44:32.836Z,94236.81
2022-09-12T13:47:03.075Z,94233.59
2022-09-12T13:49:35.319Z,94241.66
2022-09-12T13:52:06.275Z,94236.44
2022-09-12T13:54:37.918Z,94233.66
2022-09-12T13:57:05.269Z,94231.69
2022-09-12T13:59:42.748Z,94232.66
2022-09-12T14:02:23.784Z,94233.91
2022-09-12T14:05:11.495Z,94226.28
2022-09-12T14:07:56.196Z,94225.56
2022-09-12T14:10:35.746Z,94227.34
2022-09-12T14:13:10.556Z,94219.72
2022-09-12T14:15:37.904Z,94224.34
2022-09-12T14:18:08.875Z,94219.69
2022-09-12T14:20:38.679Z,94227.50
2022-09-12T14:23:22.213Z,94221.19
2022-09-12T14:25:49.961Z,94210.34
2022-09-12T14:28:23.146Z,94207.75
2022-09-12T14:31:01.672Z,94205.75
2022-09-12T14:33:29.466Z,94201.06
2022-09-12T14:36:34.590Z,94191.84
2022-09-12T14:39:04.598Z,94195.44
2022-09-12T14:41:38.456Z,94187.13
2022-09-12T14:44:08.556Z,94177.31
2022-09-12T14:46:37.979Z,94178.81
2022-09-12T14:49:41.169Z,94179.88
2022-09-12T14:52:25.075Z,94180.88
2022-09-12T14:55:03.785Z,94171.69
2022-09-12T14:57:38.887Z,94172.31
2022-09-12T15:00:11.844Z,94172.19
2022-09-12T15:02:42.909Z,94165.78
2022-09-12T15:05:12.049Z,94164.88
2022-09-12T15:08:00.530Z,94164.94
2022-09-12T15:10:38.143Z,94157.75
2022-09-12T15:13:16.992Z,94176.72
2022-09-12T15:15:47.913Z,94171.63
2022-09-12T15:18:15.123Z,94166.88
2022-09-12T15:20:44.282Z,94175.63
2022-09-12T15:23:17.050Z,94172.66
2022-09-12T15:25:43.625Z,94163.00
2022-09-12T15:28:18.029Z,94169.59
2022-09-12T15:30:45.142Z,94169.19
2022-09-12T15:33:12.227Z,94169.28
2022-09-12T15:35:39.392Z,94173.19
2022-09-12T15:38:06.099Z,94166.63
2022-09-12T15:40:32.693Z,94171.31
2022-09-12T15:42:59.750Z,94164.69
2022-09-12T15:45:29.422Z,94158.81
2022-09-12T15:47:56.797Z,94160.06
2022-09-12T15:50:23.868Z,94156.19
2022-09-12T15:52:50.566Z,94156.59
2022-09-12T15:55:22.294Z,94167.50
2022-09-12T15:57:48.871Z,94164.00
2022-09-12T16:00:17.828Z,94158.59
2022-09-12T16:02:46.440Z,94153.13
2022-09-12T16:05:23.367Z,94148.47
2022-09-12T16:07:53.329Z,94159.44
2022-09-12T16:10:23.865Z,94152.91
2022-09-12T16:12:51.441Z,94154.84
2022-09-12T16:15:21.258Z,94153.28
2022-09-12T16:17:47.999Z,94151.38
2022-09-12T16:20:14.900Z,94150.63
2022-09-12T16:22:41.749Z,94149.88
2022-09-12T16:25:09.210Z,94153.00
2022-09-12T16:27:37.468Z,94147.16
2022-09-12T16:30:07.229Z,94149.16
2022-09-12T16:32:33.980Z,94149.53
2022-09-12T16:35:00.709Z,94136.72
2022-09-12T16:37:27.618Z,94137.50
2022-09-12T16:39:54.229Z,94128.56
2022-09-12T16:42:20.925Z,94123.94
2022-09-12T16:44:47.677Z,94130.50
2022-09-12T16:47:14.925Z,94128.59
2022-09-12T16:49:41.534Z,94127.81
2022-09-12T16:52:08.714Z,94123.94
2022-09-12T16:54:35.363Z,94126.72
2022-09-12T16:57:02.648Z,94131.38
2022-09-12T16:59:29.327Z,94128.28
2022-09-12T17:01:56.048Z,94120.13
2022-09-12T17:04:23.707Z,94117.78
2022-09-12T17:06:50.549Z,94124.41
2022-09-12T17:09:18.678Z,94122.09
2022-09-12T17:11:47.790Z,94119.75
2022-09-12T17:14:14.436Z,94125.22
2022-09-12T17:16:47.967Z,94120.94
2022-09-12T17:19:26.429Z,94114.69
2022-09-12T17:21:53.097Z,94113.91
2022-09-12T17:24:20.213Z,94105.75
2022-09-12T17:26:47.048Z,94104.59
2022-09-12T17:29:14.251Z,94105.38
2022-09-12T17:31:41.917Z,94109.25
2022-09-12T17:34:09.214Z,94108.47
2022-09-12T17:36:35.864Z,94111.16
2022-09-12T17:39:04.161Z,94104.16
2022-09-12T17:41:34.726Z,94113.47
2022-09-12T17:44:03.443Z,94112.28
2022-09-12T17:46:34.954Z,94115.38
2022-09-12T17:49:03.638Z,94118.84
2022-09-12T17:51:31.244Z,94116.09
2022-09-12T17:54:00.122Z,94123.88
2022-09-12T17:56:28.398Z,94130.81
2022-09-12T17:58:56.731Z,94128.06
2022-09-12T18:01:43.160Z,94127.66
2022-09-12T18:04:10.832Z,94131.09
2022-09-12T18:06:38.037Z,94132.59
2022-09-12T18:09:07.658Z,94135.69
2022-09-12T18:11:34.698Z,94138.41
2022-09-12T18:14:02.635Z,94136.84
2022-09-12T18:16:29.546Z,94137.59
2022-09-12T18:18:56.379Z,94140.19
2022-09-12T18:21:23.026Z,94149.47
2022-09-12T18:23:49.627Z,94144.72
2022-09-12T18:26:16.297Z,94147.00
2022-09-12T18:28:44.354Z,94144.56
2022-09-12T18:31:14.458Z,94144.06
2022-09-12T18:33:41.239Z,94142.06
2022-09-12T18:36:10.523Z,94150.50
2022-09-12T18:38:38.073Z,94143.44
2022-09-12T18:41:06.741Z,94142.25
2022-09-12T18:43:33.416Z,94137.97
2022-09-12T18:46:07.247Z,94141.91
2022-09-12T18:48:34.944Z,94136.56
2022-09-12T18:51:09.889Z,94142.81
2022-09-12T18:53:37.431Z,94145.06
2022-09-12T18:56:10.307Z,94144.19
2022-09-12T18:58:38.890Z,94140.13
2022-09-12T19:01:17.668Z,94134.50
2022-09-12T19:03:45.613Z,94144.84
2022-09-12T19:06:17.949Z,94142.06
2022-09-12T19:08:45.703Z,94139.59
2022-09-12T19:11:13.220Z,94141.81
2022-09-12T19:13:43.228Z,94154.06
2022-09-12T19:16:14.220Z,94155.44
2022-09-12T19:18:41.631Z,94149.91
2022-09-12T19:21:16.678Z,94147.56
2022-09-12T19:23:43.664Z,94148.94
2022-09-12T19:26:12.592Z,94146.03
2022-09-12T19:28:39.812Z,94141.59
2022-09-12T19:31:12.969Z,94136.47
2022-09-12T19:33:40.518Z,94132.41
2022-09-12T19:36:33.742Z,94143.16
2022-09-12T19:38:58.653Z,94137.59
2022-09-12T19:41:25.442Z,94142.69
2022-09-12T19:43:52.031Z,94134.81
2022-09-12T19:46:20.795Z,94125.38
2022-09-12T19:48:47.895Z,94128.75
2022-09-12T19:51:16.106Z,94132.50
2022-09-12T19:53:43.543Z,94120.81
2022-09-12T19:56:12.005Z,94119.59
2022-09-12T19:58:44.285Z,94116.84
2022-09-12T20:01:13.262Z,94110.56
2022-09-12T20:03:40.182Z,94112.91
2022-09-12T20:06:09.507Z,94121.16
2022-09-12T20:08:43.934Z,94113.38
2022-09-12T20:11:12.303Z,94119.84
2022-09-12T20:13:39.257Z,94124.03
2022-09-12T20:16:21.755Z,94123.63
2022-09-12T20:18:57.650Z,94115.56
2022-09-12T20:21:31.226Z,94125.78
2022-09-12T20:24:01.519Z,94128.31
2022-09-12T20:26:28.175Z,94119.84
2022-09-12T20:28:54.831Z,94121.81
2022-09-12T20:31:21.585Z,94115.28
2022-09-12T20:33:51.801Z,94114.91
2022-09-12T20:36:20.695Z,94121.09
2022-09-12T20:38:49.893Z,94120.31
2022-09-12T20:41:17.275Z,94117.19
2022-09-12T20:43:43.874Z,94117.97
2022-09-12T20:46:11.435Z,94120.75
2022-09-12T20:48:38.966Z,94124.63
2022-09-12T20:51:07.273Z,94110.66
2022-09-12T20:53:35.380Z,94114.00
2022-09-12T20:56:03.698Z,94119.19
2022-09-12T20:58:30.326Z,94100.78
2022-09-12T21:00:57.122Z,94107.19
2022-09-12T21:03:25.462Z,94114.81
2022-09-12T21:05:52.717Z,94110.84
2022-09-12T21:08:19.427Z,94109.22
2022-09-12T21:10:46.088Z,94113.06
2022-09-12T21:13:13.746Z,94113.44
2022-09-12T21:15:41.392Z,94111.06
2022-09-12T21:18:08.144Z,94115.25
2022-09-12T21:20:34.815Z,94106.00
2022-09-12T21:23:01.656Z,94108.38
2022-09-12T21:25:29.512Z,94107.25
2022-09-12T21:27:56.158Z,94097.97
2022-09-12T21:30:22.772Z,94092.88
2022-09-12T21:32:49.413Z,94094.44
2022-09-12T21:35:16.430Z,94098.38
2022-09-12T21:37:43.096Z,94095.22
2022-09-12T21:40:10.138Z,94088.19
2022-09-12T21:42:37.330Z,94088.19
2022-09-12T21:45:04.291Z,94094.50
2022-09-12T21:47:30.986Z,94090.25
2022-09-12T21:49:58.441Z,94092.81
2022-09-12T21:52:25.411Z,94099.53
2022-09-12T21:54:51.992Z,94097.31
2022-09-12T21:57:18.599Z,94089.84
2022-09-12T21:59:45.198Z,94087.72
2022-09-12T22:02:12.475Z,94085.97
2022-09-12T22:04:39.205Z,94093.94
2022-09-12T22:07:06.039Z,94095.50
2022-09-12T22:09:34.358Z,94092.50
2022-09-12T22:12:02.457Z,94096.06
2022-09-12T22:14:29.682Z,94098.69
2022-09-12T22:16:56.802Z,94099.25
2022-09-12T22:19:23.494Z,94102.13
2022-09-12T22:22:09.103Z,94104.16
2022-09-12T22:24:35.716Z,94108.28
2022-09-12T22:27:04.711Z,94087.19
2022-09-12T22:29:31.999Z,94088.31
2022-09-12T22:31:59.663Z,94099.09
2022-09-12T22:34:29.130Z,94086.84
2022-09-12T22:36:56.371Z,94083.63
2022-09-12T22:39:24.077Z,94072.38
2022-09-12T22:41:50.985Z,94081.94
2022-09-12T22:44:17.891Z,94076.69
2022-09-12T22:46:44.765Z,94076.22
2022-09-12T22:49:11.424Z,94069.97
2022-09-12T22:51:38.527Z,94059.78
2022-09-12T22:54:05.902Z,94056.25
2022-09-12T22:56:32.791Z,94050.84
2022-09-12T22:58:59.421Z,94045.41
2022-09-12T23:01:26.091Z,94053.63
2022-09-12T23:03:52.806Z,94043.91
2022-09-12T23:06:19.465Z,94032.88
2022-09-12T23:08:46.124Z,94042.72
2022-09-12T23:11:15.506Z,94035.69
2022-09-12T23:13:44.916Z,94029.03
2022-09-12T23:16:32.093Z,94027.53
2022-09-12T23:18:58.757Z,94032.47
2022-09-12T23:21:25.505Z,94019.72
2022-09-12T23:23:52.243Z,94005.38
2022-09-12T23:26:30.724Z,94019.28
2022-09-12T23:28:59.372Z,94019.00
2022-09-12T23:31:31.436Z,94014.75
2022-09-12T23:34:05.960Z,94010.06
2022-09-12T23:36:34.211Z,94019.00
2022-09-12T23:39:01.161Z,94005.66
2022-09-12T23:41:28.120Z,94014.16
2022-09-12T23:43:54.835Z,94015.03
2022-09-12T23:46:22.326Z,94016.94
2022-09-12T23:48:49.522Z,94015.28
2022-09-12T23:51:16.298Z,94006.91
2022-09-12T23:53:43.060Z,93999.19
2022-09-12T23:56:09.991Z,94013.50
2022-09-12T23:58:36.919Z,94011.88
